Time;durP1;ratioP1;P1;durP2;ratioP2;P2;SDS_P1;SDS_P2;PMS_P1;PMS_P2;Temp;Humidity;BMP_temperature;BMP_pressure;BME280_temperature;BME280_humidity;BME280_pressure;Samples;Min_cycle;Max_cycle;Signal;HPM_P1;HPM_P2
2022/08/06 00:02:13;;;;;;;9.93;5.90;;;28.30;99.90;;;;;;4121972;28;20043;-68
2022/08/06 00:04:24;;;;;;;10.20;6.13;;;28.30;99.90;;;;;;4122008;28;20046;-67
2022/08/06 00:06:31;;;;;;;11.75;5.50;;;28.30;99.90;;;;;;4127375;28;20038;-69
2022/08/06 00:08:36;;;;;;;9.50;4.93;;;28.30;99.90;;;;;;4133843;28;20053;-69
2022/08/06 00:10:41;;;;;;;9.80;5.70;;;28.30;99.90;;;;;;4133305;28;20050;-68
2022/08/06 00:12:53;;;;;;;9.55;4.85;;;28.40;99.90;;;;;;4130364;28;20156;-67
2022/08/06 00:14:58;;;;;;;7.53;4.47;;;28.40;99.90;;;;;;4132762;28;20449;-68
2022/08/06 00:17:03;;;;;;;8.32;4.82;;;28.40;99.90;;;;;;4133776;28;20042;-68
2022/08/06 00:19:14;;;;;;;9.27;5.50;;;28.50;99.90;;;;;;4097864;28;20133;-69
2022/08/06 00:21:20;;;;;;;9.15;5.20;;;28.50;99.90;;;;;;4134304;28;20048;-69
2022/08/06 00:23:45;;;;;;;9.05;4.88;;;28.40;99.90;;;;;;4136401;28;20065;-67
2022/08/06 00:25:57;;;;;;;;;;;28.50;99.90;;;;;;4131331;28;20099;-67
2022/08/06 00:28:04;;;;;;;9.63;4.95;;;28.50;99.90;;;;;;4131716;28;19976;-67
2022/08/06 00:30:14;;;;;;;7.63;4.38;;;28.50;99.90;;;;;;4131647;28;20145;-67
2022/08/06 00:32:24;;;;;;;11.07;4.88;;;28.50;99.90;;;;;;4138021;28;20069;-68
2022/08/06 00:34:31;;;;;;;8.75;4.32;;;28.50;99.90;;;;;;4133892;28;20058;-68
2022/08/06 00:36:38;;;;;;;7.80;5.15;;;28.50;99.90;;;;;;4132009;28;20049;-68
2022/08/06 00:38:48;;;;;;;8.23;5.10;;;28.50;99.90;;;;;;4133195;28;20053;-69
2022/08/06 00:40:54;;;;;;;9.23;4.85;;;28.50;99.90;;;;;;4137950;28;20044;-69
2022/08/06 00:43:03;;;;;;;7.22;4.22;;;28.60;99.90;;;;;;4129197;28;20492;-69
2022/08/06 00:45:14;;;;;;;8.43;4.00;;;28.60;99.90;;;;;;4130436;28;20553;-69
2022/08/06 00:47:27;;;;;;;8.35;4.43;;;28.70;99.90;;;;;;4129495;28;20049;-68
2022/08/06 00:49:51;;;;;;;10.88;4.25;;;28.70;99.90;;;;;;4131114;28;20405;-69
2022/08/06 00:51:58;;;;;;;8.13;4.65;;;28.80;99.90;;;;;;4134848;28;20050;-69
2022/08/06 00:54:03;;;;;;;7.53;4.50;;;28.80;99.90;;;;;;4133859;28;20129;-68
2022/08/06 00:56:08;;;;;;;7.95;4.13;;;28.80;99.90;;;;;;4129882;28;20725;-69
2022/08/06 00:58:18;;;;;;;7.90;3.80;;;28.90;99.90;;;;;;4129914;28;20050;-67
2022/08/06 01:00:22;;;;;;;7.43;3.40;;;29.00;99.90;;;;;;4127500;28;20034;-69
2022/08/06 01:02:33;;;;;;;8.43;3.67;;;29.00;99.90;;;;;;4130793;28;20100;-69
2022/08/06 01:04:48;;;;;;;5.82;3.17;;;29.10;99.90;;;;;;4130967;28;20049;-69
2022/08/06 01:06:53;;;;;;;6.43;3.35;;;29.10;99.90;;;;;;4130125;28;20133;-69
2022/08/06 01:09:01;;;;;;;6.03;3.10;;;29.10;99.90;;;;;;4130039;28;20057;-68
2022/08/06 01:11:06;;;;;;;9.65;3.67;;;29.20;99.90;;;;;;4129972;28;20456;-68
2022/08/06 01:13:14;;;;;;;7.35;2.97;;;29.20;99.90;;;;;;4130291;28;20575;-68
2022/08/06 01:15:40;;;;;;;5.68;2.70;;;29.30;99.90;;;;;;4131589;28;20109;-68
2022/08/06 01:18:09;;;;;;;4.90;2.65;;;29.40;99.90;;;;;;4112394;28;20524;-69
2022/08/06 01:20:35;;;;;;;6.53;2.67;;;29.40;99.90;;;;;;4114839;28;20054;-69
2022/08/06 01:23:18;;;;;;;8.23;2.80;;;29.50;99.90;;;;;;4124306;28;20133;-68
2022/08/06 01:25:53;;;;;;;7.45;2.90;;;29.50;99.90;;;;;;4128533;28;20516;-70
2022/08/06 01:28:07;;;;;;;4.72;2.20;;;29.60;99.90;;;;;;4108901;28;20050;-69
2022/08/06 01:30:20;;;;;;;4.78;2.13;;;29.60;99.90;;;;;;4105190;28;20043;-69
2022/08/06 01:32:38;;;;;;;5.95;2.50;;;29.70;99.90;;;;;;4059787;29;20071;-69
2022/08/06 01:35:00;;;;;;;9.27;2.50;;;29.70;99.90;;;;;;4086053;28;20061;-69
2022/08/06 01:37:26;;;;;;;4.70;2.22;;;29.70;99.90;;;;;;4108301;28;20047;-69
2022/08/06 01:39:42;;;;;;;6.28;2.47;;;29.80;99.90;;;;;;4111172;28;20053;-67
2022/08/06 01:42:06;;;;;;;4.40;2.00;;;29.80;99.90;;;;;;4113606;28;20074;-68
2022/08/06 01:44:16;;;;;;;6.68;2.40;;;30.00;99.90;;;;;;4114197;28;20054;-69
2022/08/06 01:46:28;;;;;;;4.22;2.30;;;30.00;99.90;;;;;;4126178;28;20162;-69
2022/08/06 01:48:33;;;;;;;6.50;2.70;;;30.00;99.90;;;;;;4126466;28;20051;-69
2022/08/06 01:50:41;;;;;;;6.97;2.63;;;30.00;99.90;;;;;;4138880;28;20046;-68
2022/08/06 01:52:49;;;;;;;5.68;2.40;;;30.10;99.90;;;;;;4140435;28;20424;-68
2022/08/06 01:55:03;;;;;;;6.60;2.85;;;30.20;99.90;;;;;;4138591;28;20082;-68
2022/08/06 01:57:14;;;;;;;6.03;2.45;;;30.20;99.90;;;;;;4134935;28;20091;-68
2022/08/06 01:59:44;;;;;;;6.03;2.45;;;30.20;99.90;;;;;;4104088;28;20105;-68
2022/08/06 02:01:53;;;;;;;7.57;3.22;;;30.20;99.90;;;;;;4120130;28;20579;-69
2022/08/06 02:04:00;;;;;;;4.65;2.42;;;30.20;99.90;;;;;;4120525;28;20161;-69
2022/08/06 02:06:12;;;;;;;7.18;2.60;;;30.20;99.90;;;;;;4110494;28;20050;-69
2022/08/06 02:08:19;;;;;;;7.00;3.63;;;30.20;99.90;;;;;;4105593;28;20078;-67
2022/08/06 02:10:44;;;;;;;6.90;2.47;;;30.30;99.90;;;;;;4121547;28;20106;-70
2022/08/06 02:12:54;;;;;;;5.13;2.08;;;30.20;99.90;;;;;;4119210;28;20050;-69
2022/08/06 02:15:26;;;;;;;4.15;2.17;;;30.20;99.90;;;;;;4090965;28;20048;-68
2022/08/06 02:17:53;;;;;;;8.18;2.17;;;30.30;99.90;;;;;;4115253;28;20047;-69
2022/08/06 02:20:12;;;;;;;3.97;2.03;;;30.30;99.90;;;;;;4092565;28;20054;-69
2022/08/06 02:22:38;;;;;;;5.22;2.22;;;30.40;99.90;;;;;;4121831;28;20049;-69
2022/08/06 02:24:46;;;;;;;7.85;2.10;;;30.40;99.90;;;;;;4105894;28;20054;-67
2022/08/06 02:26:52;;;;;;;4.90;1.85;;;30.40;99.80;;;;;;4118649;28;20049;-66
2022/08/06 02:28:58;;;;;;;3.40;2.05;;;30.50;99.80;;;;;;4086510;28;20130;-68
2022/08/06 02:31:04;;;;;;;33.88;7.93;;;30.50;99.60;;;;;;4120308;28;20055;-68
2022/08/06 02:33:22;;;;;;;5.90;2.30;;;30.50;99.60;;;;;;4119826;28;20576;-68
2022/08/06 02:36:05;;;;;;;8.32;2.63;;;30.60;99.40;;;;;;4105560;28;20536;-68
2022/08/06 02:38:39;;;;;;;14.13;3.78;;;30.70;99.20;;;;;;4137177;28;20056;-68
2022/08/06 02:41:11;;;;;;;11.02;3.28;;;30.80;99.30;;;;;;4137449;28;20493;-68
2022/08/06 02:43:18;;;;;;;5.38;2.70;;;30.80;99.20;;;;;;4138549;28;20034;-68
2022/08/06 02:45:45;;;;;;;48.90;7.05;;;30.80;99.20;;;;;;4132987;28;20043;-68
2022/08/06 02:48:26;;;;;;;8.77;3.55;;;30.80;98.90;;;;;;4132177;28;20058;-68
2022/08/06 02:50:37;;;;;;;8.55;2.30;;;30.90;98.90;;;;;;4139079;28;20048;-69
2022/08/06 02:52:49;;;;;;;7.03;1.92;;;30.90;98.50;;;;;;4139202;28;20089;-69
2022/08/06 02:55:10;;;;;;;8.70;2.55;;;30.90;98.50;;;;;;4137307;28;20046;-67
2022/08/06 02:57:41;;;;;;;6.85;2.50;;;31.00;98.40;;;;;;4138467;28;20057;-69
2022/08/06 02:59:55;;;;;;;7.20;2.10;;;31.10;98.30;;;;;;4135398;28;20050;-67
2022/08/06 03:02:01;;;;;;;10.48;3.58;;;31.10;98.20;;;;;;4121718;28;20050;-68
2022/08/06 03:04:14;;;;;;;7.60;2.72;;;31.20;98.20;;;;;;4139027;28;20057;-68
2022/08/06 03:06:18;;;;;;;4.43;1.92;;;31.20;98.00;;;;;;4138619;28;20117;-68
2022/08/06 03:08:24;;;;;;;6.00;2.05;;;31.20;97.80;;;;;;4137332;28;20042;-68
2022/08/06 03:10:31;;;;;;;5.53;2.05;;;31.30;97.90;;;;;;4138503;28;20037;-68
2022/08/06 03:12:37;;;;;;;3.05;1.60;;;31.40;97.70;;;;;;4131993;28;20050;-68
2022/08/06 03:14:42;;;;;;;6.47;1.73;;;31.30;97.20;;;;;;4138123;28;20081;-68
2022/08/06 03:17:07;;;;;;;2.65;1.58;;;31.30;96.90;;;;;;4115486;28;20456;-68
2022/08/06 03:19:12;;;;;;;4.65;2.20;;;31.40;97.00;;;;;;4115417;28;20051;-68
2022/08/06 03:21:37;;;;;;;4.95;2.00;;;31.50;97.10;;;;;;4131044;28;20527;-68
2022/08/06 03:23:43;;;;;;;3.83;1.75;;;31.50;96.80;;;;;;4129539;28;20101;-68
2022/08/06 03:25:51;;;;;;;5.15;1.77;;;31.30;96.80;;;;;;4131216;28;20054;-68
2022/08/06 03:27:58;;;;;;;4.43;1.77;;;31.40;97.00;;;;;;4131337;28;20125;-68
2022/08/06 03:30:09;;;;;;;5.63;1.60;;;31.50;97.00;;;;;;4133756;28;20038;-69
2022/08/06 03:32:14;;;;;;;5.75;1.85;;;31.60;97.30;;;;;;4137915;28;20101;-69
2022/08/06 03:34:39;;;;;;;4.68;1.80;;;31.70;97.00;;;;;;4135642;28;20074;-70
2022/08/06 03:36:46;;;;;;;4.75;1.70;;;31.80;96.80;;;;;;4137978;28;20054;-68
2022/08/06 03:38:57;;;;;;;3.90;1.80;;;32.00;96.60;;;;;;4135557;28;20042;-69
2022/08/06 03:41:02;;;;;;;5.57;1.50;;;32.10;96.60;;;;;;4137397;28;20041;-68
2022/08/06 03:43:12;;;;;;;3.60;1.60;;;32.20;96.50;;;;;;4134224;28;20038;-69
2022/08/06 03:45:31;;;;;;;3.80;1.50;;;32.30;96.20;;;;;;4135675;28;20037;-69
2022/08/06 03:47:58;;;;;;;4.20;1.80;;;32.40;96.20;;;;;;4101970;28;20591;-70
2022/08/06 03:50:25;;;;;;;3.70;1.58;;;32.50;96.10;;;;;;4103182;28;20130;-69
2022/08/06 03:52:31;;;;;;;4.13;1.67;;;32.50;95.90;;;;;;4101332;28;20113;-69
2022/08/06 03:54:41;;;;;;;2.95;1.70;;;32.60;96.00;;;;;;4088530;29;20051;-68
2022/08/06 03:56:45;;;;;;;6.05;1.98;;;32.50;95.60;;;;;;4103498;28;20055;-69
2022/08/06 03:58:53;;;;;;;4.97;1.75;;;32.50;95.90;;;;;;4103728;28;20051;-69
2022/08/06 04:01:12;;;;;;;4.07;1.77;;;32.60;95.60;;;;;;4103262;28;20063;-70
2022/08/06 04:03:24;;;;;;;4.75;1.65;;;32.60;95.60;;;;;;4102493;28;20054;-70
2022/08/06 04:05:33;;;;;;;6.57;2.17;;;32.70;95.80;;;;;;4116711;28;20109;-70
2022/08/06 04:07:44;;;;;;;6.00;1.95;;;32.80;95.30;;;;;;4103496;28;20126;-69
2022/08/06 04:10:00;;;;;;;4.35;1.83;;;32.80;95.40;;;;;;4102170;28;20046;-70
2022/08/06 04:12:05;;;;;;;3.60;1.83;;;32.80;95.10;;;;;;4102900;28;20074;-70
2022/08/06 04:14:32;;;;;;;3.90;1.60;;;32.80;95.30;;;;;;4063689;29;20060;-69
2022/08/06 04:16:39;;;;;;;2.65;1.45;;;32.90;95.10;;;;;;4033383;29;20124;-70
2022/08/06 04:18:44;;;;;;;3.63;1.27;;;32.80;93.40;;;;;;4062009;29;20056;-70
2022/08/06 04:20:56;;;;;;;3.80;1.50;;;32.60;93.40;;;;;;4063331;29;20086;-70
2022/08/06 04:23:22;;;;;;;5.70;1.67;;;32.70;93.30;;;;;;4062507;29;20044;-69
2022/08/06 04:25:45;;;;;;;3.97;1.67;;;32.80;94.20;;;;;;4085934;28;20085;-69
2022/08/06 04:27:52;;;;;;;5.47;2.15;;;32.90;94.40;;;;;;4108878;28;20049;-70
2022/08/06 04:30:00;;;;;;;2.67;1.55;;;33.00;94.60;;;;;;4095477;28;20043;-69
2022/08/06 04:32:08;;;;;;;3.08;1.25;;;33.10;94.60;;;;;;4110807;28;20081;-69
2022/08/06 04:34:31;;;;;;;5.72;1.67;;;33.20;94.30;;;;;;4085379;29;20052;-69
2022/08/06 04:36:41;;;;;;;5.03;1.80;;;33.20;94.70;;;;;;4110935;28;20464;-69
2022/08/06 04:38:57;;;;;;;5.70;1.60;;;33.20;94.70;;;;;;4110784;28;20046;-68
2022/08/06 04:41:02;;;;;;;3.72;1.42;;;33.20;94.40;;;;;;4110868;28;20061;-69
2022/08/06 04:43:18;;;;;;;4.07;1.65;;;33.20;94.10;;;;;;4110343;28;20039;-69
2022/08/06 04:45:24;;;;;;;7.00;1.52;;;33.20;94.20;;;;;;4089099;28;20051;-70
2022/08/06 04:47:49;;;;;;;3.80;1.60;;;33.30;94.30;;;;;;4109763;28;20047;-70
2022/08/06 04:49:55;;;;;;;4.82;1.42;;;33.20;93.30;;;;;;4110159;28;20050;-70
2022/08/06 04:52:25;;;;;;;4.50;1.42;;;33.30;93.70;;;;;;4110187;28;20042;-69
2022/08/06 04:54:48;;;;;;;3.33;1.48;;;33.40;92.70;;;;;;4130015;28;20060;-70
2022/08/06 04:56:57;;;;;;;3.75;1.83;;;33.40;93.20;;;;;;4135851;28;20050;-71
2022/08/06 04:59:11;;;;;;;2.15;1.15;;;33.50;93.30;;;;;;4135388;28;20045;-70
2022/08/06 05:01:17;;;;;;;4.13;1.63;;;33.50;93.50;;;;;;4136649;28;20496;-70
2022/08/06 05:03:24;;;;;;;4.30;1.30;;;33.40;93.70;;;;;;4137156;28;20432;-70
2022/08/06 05:05:55;;;;;;;5.38;1.70;;;33.40;94.00;;;;;;4134187;28;20049;-71
2022/08/06 05:08:03;;;;;;;4.13;1.80;;;33.40;93.90;;;;;;4136994;28;20060;-70
2022/08/06 05:10:12;;;;;;;7.22;2.03;;;33.40;94.30;;;;;;4136146;28;20046;-71
2022/08/06 05:12:42;;;;;;;5.28;2.30;;;33.50;93.80;;;;;;4136793;28;20077;-70
2022/08/06 05:14:54;;;;;;;4.68;1.65;;;33.50;93.40;;;;;;4136879;28;20066;-70
2022/08/06 05:17:01;;;;;;;5.38;1.88;;;33.60;93.40;;;;;;4136920;28;20460;-70
2022/08/06 05:19:13;;;;;;;3.47;1.98;;;33.70;93.50;;;;;;4130721;28;20527;-70
2022/08/06 05:21:28;;;;;;;4.28;1.70;;;33.70;93.30;;;;;;4160688;28;20060;-68
2022/08/06 05:23:55;;;;;;;3.72;1.63;;;33.70;93.40;;;;;;4133932;28;20105;-69
2022/08/06 05:25:59;;;;;;;2.38;1.33;;;33.70;93.00;;;;;;4136778;28;20484;-71
2022/08/06 05:28:05;;;;;;;2.67;1.45;;;33.60;92.90;;;;;;4133698;28;20104;-70
2022/08/06 05:30:16;;;;;;;5.07;1.90;;;33.60;93.00;;;;;;4136571;28;20037;-71
2022/08/06 05:32:22;;;;;;;4.18;1.80;;;33.60;92.40;;;;;;4135264;28;20045;-71
2022/08/06 05:34:28;;;;;;;4.35;1.58;;;33.60;92.40;;;;;;4134565;28;20046;-70
2022/08/06 05:36:37;;;;;;;4.85;1.42;;;33.70;92.50;;;;;;4138357;28;20568;-70
2022/08/06 05:38:46;;;;;;;3.42;1.60;;;33.40;91.40;;;;;;4134560;28;20058;-69
2022/08/06 05:41:07;;;;;;;3.95;1.33;;;33.50;92.00;;;;;;4136554;28;20057;-70
2022/08/06 05:43:11;;;;;;;4.28;1.27;;;33.40;91.70;;;;;;4136989;28;20038;-70
2022/08/06 05:45:19;;;;;;;4.03;1.27;;;33.40;91.90;;;;;;4135069;28;20042;-70
2022/08/06 05:47:32;;;;;;;3.63;1.80;;;33.40;92.40;;;;;;4136979;28;20076;-70
2022/08/06 05:50:09;;;;;;;3.20;1.40;;;33.40;93.10;;;;;;4135490;28;20056;-71
2022/08/06 05:52:53;;;;;;;3.95;1.38;;;33.60;93.40;;;;;;4136587;28;20485;-71
2022/08/06 05:55:01;;;;;;;;;;;33.80;93.30;;;;;;4138207;28;20053;-71
2022/08/06 05:57:28;;;;;;;3.92;1.65;;;33.80;93.50;;;;;;4132937;28;20372;-71
2022/08/06 05:59:49;;;;;;;4.15;1.85;;;33.70;93.50;;;;;;4139391;28;20683;-69
2022/08/06 06:01:59;;;;;;;5.43;1.75;;;33.90;93.40;;;;;;4109279;28;20047;-70
2022/08/06 06:04:06;;;;;;;4.25;1.88;;;33.90;93.50;;;;;;4139488;28;20049;-70
2022/08/06 06:06:11;;;;;;;3.63;1.70;;;33.90;93.10;;;;;;4141860;28;20060;-71
2022/08/06 06:08:21;;;;;;;6.60;1.63;;;33.80;93.10;;;;;;4167392;28;20041;-70
2022/08/06 06:10:45;;;;;;;4.57;1.70;;;33.90;93.40;;;;;;4139976;28;20091;-69
2022/08/06 06:12:56;;;;;;;6.60;2.03;;;34.00;93.40;;;;;;4139546;28;20050;-70
2022/08/06 06:15:07;;;;;;;2.95;1.33;;;34.10;93.40;;;;;;4138074;28;20508;-71
2022/08/06 06:17:47;;;;;;;3.53;1.42;;;34.00;92.90;;;;;;4138442;28;20128;-71
2022/08/06 06:20:10;;;;;;;4.82;1.90;;;33.90;93.00;;;;;;4139422;28;20442;-71
2022/08/06 06:22:24;;;;;;;5.47;1.80;;;33.90;92.90;;;;;;4101690;28;20137;-71
2022/08/06 06:24:49;;;;;;;3.03;1.38;;;33.90;93.00;;;;;;4139662;28;20045;-71
2022/08/06 06:27:04;;;;;;;4.95;1.40;;;33.90;93.10;;;;;;4138498;28;20464;-70
2022/08/06 06:29:48;;;;;;;6.90;1.80;;;33.90;93.00;;;;;;4162614;28;20046;-71
2022/08/06 06:32:32;;;;;;;4.63;1.45;;;34.00;92.80;;;;;;4138491;28;20664;-70
2022/08/06 06:35:02;;;;;;;4.82;1.75;;;34.00;92.80;;;;;;4137139;28;20069;-68
2022/08/06 06:37:34;;;;;;;5.22;1.70;;;34.00;92.90;;;;;;4136964;28;20041;-69
2022/08/06 06:40:22;;;;;;;6.25;1.67;;;33.90;93.00;;;;;;4110350;28;20145;-69
2022/08/06 06:42:56;;;;;;;5.20;1.20;;;33.80;93.20;;;;;;4139183;28;20042;-72
2022/08/06 06:45:25;;;;;;;10.20;2.53;;;33.80;93.30;;;;;;4137269;28;20401;-70
2022/08/06 06:48:03;;;;;;;4.50;1.20;;;33.80;93.10;;;;;;4139334;28;20117;-68
2022/08/06 06:50:15;;;;;;;7.75;1.83;;;33.70;92.90;;;;;;4139021;28;20042;-70
2022/08/06 06:52:28;;;;;;;5.28;1.63;;;33.70;93.00;;;;;;4135278;28;20046;-70
2022/08/06 06:54:39;;;;;;;4.05;1.60;;;33.70;92.50;;;;;;4139195;28;20448;-70
2022/08/06 06:56:49;;;;;;;3.60;1.40;;;33.70;92.40;;;;;;4136702;28;20046;-70
2022/08/06 06:59:05;;;;;;;6.13;1.52;;;33.70;92.50;;;;;;4169628;28;20049;-69
2022/08/06 07:01:19;;;;;;;4.75;1.58;;;33.70;92.50;;;;;;4150867;28;20486;-69
2022/08/06 07:03:33;;;;;;;6.30;1.50;;;33.70;92.70;;;;;;4132418;28;20096;-71
2022/08/06 07:05:47;;;;;;;4.40;1.90;;;33.70;92.80;;;;;;4131340;28;20626;-70
2022/08/06 07:08:10;;;;;;;5.05;1.70;;;33.60;93.30;;;;;;4131895;28;20466;-70
2022/08/06 07:10:15;;;;;;;6.53;1.60;;;33.60;93.20;;;;;;4132698;28;20046;-70
2022/08/06 07:12:20;;;;;;;2.60;1.30;;;33.60;92.90;;;;;;4132764;28;20133;-69
2022/08/06 07:14:26;;;;;;;5.53;1.75;;;33.60;93.00;;;;;;4138268;28;20081;-69
2022/08/06 07:16:37;;;;;;;5.78;1.33;;;33.50;93.10;;;;;;4135058;28;20463;-69
2022/08/06 07:18:43;;;;;;;4.97;1.90;;;33.50;93.00;;;;;;4135699;28;20056;-70
2022/08/06 07:20:58;;;;;;;3.92;1.63;;;33.50;93.00;;;;;;4127305;28;20042;-71
2022/08/06 07:23:18;;;;;;;5.28;2.05;;;33.50;92.80;;;;;;4128406;28;20100;-70
2022/08/06 07:25:50;;;;;;;5.32;1.83;;;33.50;92.90;;;;;;4127310;28;20448;-70
2022/08/06 07:27:59;;;;;;;6.22;1.75;;;33.60;93.00;;;;;;4127035;28;20501;-70
2022/08/06 07:30:08;;;;;;;4.72;1.60;;;33.50;92.50;;;;;;4128021;28;20054;-71
2022/08/06 07:32:14;;;;;;;5.18;1.65;;;33.50;92.90;;;;;;4127850;28;20065;-70
2022/08/06 07:34:38;;;;;;;3.22;1.52;;;33.60;93.10;;;;;;4127030;28;20077;-70
2022/08/06 07:36:51;;;;;;;8.80;1.90;;;33.70;93.20;;;;;;4109830;28;20571;-70
2022/08/06 07:39:02;;;;;;;5.95;1.92;;;33.60;93.70;;;;;;4126538;28;20050;-70
2022/08/06 07:41:09;;;;;;;4.78;1.50;;;33.60;93.50;;;;;;4127474;28;20516;-71
2022/08/06 07:43:23;;;;;;;4.60;1.38;;;33.50;93.70;;;;;;4128017;28;20085;-70
2022/08/06 07:45:35;;;;;;;4.45;1.50;;;33.60;93.60;;;;;;4128056;28;20042;-70
2022/08/06 07:48:00;;;;;;;3.65;1.50;;;33.60;93.50;;;;;;4127563;28;20081;-69
2022/08/06 07:50:13;;;;;;;4.55;2.15;;;33.60;93.40;;;;;;4125096;28;20050;-71
2022/08/06 07:52:19;;;;;;;6.63;1.70;;;33.70;93.30;;;;;;4127899;28;20640;-69
2022/08/06 07:54:32;;;;;;;4.65;1.63;;;33.70;93.20;;;;;;4128083;28;20046;-69
2022/08/06 07:56:39;;;;;;;5.93;1.80;;;33.60;92.80;;;;;;4125390;28;20046;-68
2022/08/06 07:59:03;;;;;;;5.72;1.60;;;33.30;92.20;;;;;;4153408;28;20137;-69
2022/08/06 08:01:15;;;;;;;6.20;1.52;;;33.00;92.80;;;;;;4127394;28;20503;-69
2022/08/06 08:08:21;;;;;;;7.32;1.58;;;33.30;92.80;;;;;;4129978;28;20039;-70
2022/08/06 08:10:27;;;;;;;4.95;2.05;;;33.40;92.90;;;;;;4129473;28;20073;-69
2022/08/06 08:12:33;;;;;;;5.45;2.08;;;33.40;92.90;;;;;;4129378;28;20069;-69
2022/08/06 08:14:40;;;;;;;5.90;2.30;;;33.40;92.90;;;;;;4129838;28;20049;-70
2022/08/06 08:16:52;;;;;;;5.22;2.20;;;33.40;93.00;;;;;;4128727;28;20661;-71
2022/08/06 08:18:57;;;;;;;5.47;1.65;;;33.40;93.00;;;;;;4129731;28;20120;-70
2022/08/06 08:21:08;;;;;;;4.35;1.50;;;33.40;92.90;;;;;;4128765;28;20034;-71
2022/08/06 08:23:16;;;;;;;4.82;1.90;;;33.40;93.10;;;;;;4129732;28;20046;-71
2022/08/06 08:25:39;;;;;;;22.08;15.35;;;33.40;92.90;;;;;;4133009;28;20042;-69
2022/08/06 08:27:53;;;;;;;14.00;8.90;;;33.00;92.20;;;;;;4127964;28;20041;-70
2022/08/06 08:29:59;;;;;;;10.40;5.40;;;33.10;92.50;;;;;;4127156;28;20890;-70
2022/08/06 08:32:07;;;;;;;6.50;3.90;;;33.10;93.10;;;;;;4129342;28;20041;-70
2022/08/06 08:34:20;;;;;;;7.60;2.50;;;33.20;93.10;;;;;;4129620;28;20046;-69
2022/08/06 08:36:29;;;;;;;5.65;2.35;;;33.20;92.70;;;;;;4129628;28;20046;-69
2022/08/06 08:38:39;;;;;;;6.53;2.10;;;33.10;93.10;;;;;;4129543;28;20042;-69
2022/08/06 08:40:46;;;;;;;5.80;2.15;;;33.20;93.00;;;;;;4129002;28;20054;-70
2022/08/06 08:42:55;;;;;;;3.67;1.70;;;33.30;92.80;;;;;;4159907;28;20050;-69
2022/08/06 08:45:00;;;;;;;5.53;1.88;;;33.30;92.70;;;;;;4129047;28;20050;-70
2022/08/06 08:47:08;;;;;;;5.97;2.47;;;33.30;92.80;;;;;;4127662;28;20057;-71
2022/08/06 08:49:36;;;;;;;6.30;2.40;;;33.30;93.10;;;;;;4128892;28;20042;-70
2022/08/06 08:51:40;;;;;;;4.35;2.33;;;33.30;93.30;;;;;;4143801;28;20046;-70
2022/08/06 08:53:51;;;;;;;8.48;2.20;;;33.20;93.30;;;;;;4128314;28;20129;-70
2022/08/06 08:56:01;;;;;;;6.50;2.38;;;33.20;93.70;;;;;;4129015;28;20056;-69
2022/08/06 08:58:27;;;;;;;6.43;2.10;;;33.10;93.60;;;;;;4127988;28;20046;-69
2022/08/06 09:00:48;;;;;;;5.20;2.00;;;33.10;93.60;;;;;;4128223;28;20531;-70
2022/08/06 09:02:57;;;;;;;6.03;2.20;;;33.00;93.60;;;;;;4127549;28;20054;-67
2022/08/06 09:05:02;;;;;;;5.00;2.10;;;33.00;93.80;;;;;;4127946;28;20045;-68
2022/08/06 09:07:08;;;;;;;5.20;2.08;;;32.80;94.10;;;;;;4126425;28;20049;-68
2022/08/06 09:09:22;;;;;;;6.07;2.08;;;32.80;94.30;;;;;;4128214;28;20053;-69
2022/08/06 09:11:35;;;;;;;6.30;2.05;;;32.70;94.40;;;;;;4128434;28;20437;-68
2022/08/06 09:14:03;;;;;;;6.90;2.17;;;32.70;94.30;;;;;;4127724;28;20067;-69
2022/08/06 09:16:11;;;;;;;7.10;2.22;;;32.70;94.20;;;;;;4128997;28;20369;-68
2022/08/06 09:18:34;;;;;;;5.50;2.42;;;32.60;94.10;;;;;;4129211;28;20050;-68
2022/08/06 09:20:40;;;;;;;9.60;6.40;;;32.40;94.20;;;;;;4126980;28;20042;-68
2022/08/06 09:22:50;;;;;;;8.70;3.83;;;32.40;94.20;;;;;;4130861;28;20104;-69
2022/08/06 09:24:55;;;;;;;6.20;3.88;;;32.50;94.20;;;;;;4131236;28;20035;-68
2022/08/06 09:27:12;;;;;;;4.80;2.72;;;32.40;94.00;;;;;;4131590;28;20039;-68
2022/08/06 09:29:57;;;;;;;5.65;2.08;;;32.40;93.70;;;;;;4101537;28;20097;-67
2022/08/06 09:32:46;;;;;;;4.32;2.30;;;32.40;93.50;;;;;;4101570;28;20520;-69
2022/08/06 09:34:57;;;;;;;2.65;1.52;;;32.30;93.20;;;;;;4101828;28;20078;-68
2022/08/06 09:37:07;;;;;;;10.05;5.65;;;32.40;93.40;;;;;;4101568;28;20517;-68
2022/08/06 09:39:13;;;;;;;5.97;3.13;;;32.30;92.80;;;;;;4104605;28;20299;-68
2022/08/06 09:41:29;;;;;;;5.40;2.17;;;32.30;92.70;;;;;;4110396;28;20039;-69
2022/08/06 09:43:34;;;;;;;2.53;1.40;;;32.30;92.90;;;;;;4123239;28;20537;-69
2022/08/06 09:45:59;;;;;;;3.90;1.55;;;32.40;92.80;;;;;;4111502;28;20034;-70
2022/08/06 09:48:09;;;;;;;3.15;1.60;;;32.40;92.90;;;;;;4105696;28;20074;-69
2022/08/06 09:50:42;;;;;;;4.78;2.13;;;32.40;92.70;;;;;;4102019;28;20048;-69
2022/08/06 09:53:03;;;;;;;4.13;1.70;;;32.40;92.70;;;;;;4111324;28;20043;-69
2022/08/06 09:55:30;;;;;;;4.68;1.65;;;32.40;92.90;;;;;;4100701;28;20142;-69
2022/08/06 09:57:45;;;;;;;6.07;1.83;;;32.50;92.70;;;;;;4111283;28;20051;-69
2022/08/06 09:59:52;;;;;;;3.47;1.67;;;32.50;92.90;;;;;;4108664;28;20097;-70
2022/08/06 10:01:58;;;;;;;4.45;1.98;;;32.50;92.90;;;;;;4144947;28;20065;-69
2022/08/06 10:04:03;;;;;;;3.85;1.80;;;32.50;92.80;;;;;;4132328;28;20046;-69
2022/08/06 10:06:21;;;;;;;4.43;1.73;;;32.50;92.90;;;;;;4132636;28;20290;-70
2022/08/06 10:08:28;;;;;;;4.68;1.60;;;32.40;92.90;;;;;;4133639;28;20049;-70
2022/08/06 10:10:46;;;;;;;3.63;1.40;;;32.50;92.80;;;;;;4129599;28;20052;-70
2022/08/06 10:12:54;;;;;;;3.80;1.60;;;32.40;93.00;;;;;;4133501;28;20440;-71
2022/08/06 10:15:01;;;;;;;4.72;1.92;;;32.40;93.40;;;;;;4095228;28;20117;-69
2022/08/06 10:17:18;;;;;;;4.47;2.00;;;32.40;93.50;;;;;;4133008;28;20046;-71
2022/08/06 10:19:22;;;;;;;4.43;2.42;;;32.40;93.60;;;;;;4132813;28;20034;-69
2022/08/06 10:21:38;;;;;;;5.70;2.80;;;32.40;93.60;;;;;;4133260;28;20085;-70
2022/08/06 10:23:50;;;;;;;6.28;3.08;;;32.40;93.60;;;;;;4135516;28;20050;-70
2022/08/06 10:25:56;;;;;;;6.93;3.22;;;32.30;93.90;;;;;;4135089;28;20046;-69
2022/08/06 10:28:06;;;;;;;6.32;2.75;;;32.30;94.00;;;;;;4135850;28;20069;-70
2022/08/06 10:30:10;;;;;;;5.97;2.53;;;32.30;93.90;;;;;;4134410;28;20883;-71
2022/08/06 10:32:40;;;;;;;6.28;2.42;;;32.40;93.90;;;;;;4132464;28;20051;-70
2022/08/06 10:34:48;;;;;;;5.28;2.15;;;32.30;93.50;;;;;;4135351;28;20104;-70
2022/08/06 10:36:56;;;;;;;5.57;2.17;;;32.30;93.60;;;;;;4136164;28;20070;-70
2022/08/06 10:39:01;;;;;;;2.90;2.00;;;32.30;94.10;;;;;;4134187;28;20452;-65
2022/08/06 10:41:25;;;;;;;7.68;2.33;;;32.20;94.40;;;;;;4135018;28;20038;-65
2022/08/06 10:43:50;;;;;;;4.88;2.42;;;32.20;94.70;;;;;;4137724;28;20093;-63
2022/08/06 10:45:58;;;;;;;9.27;2.78;;;32.20;95.00;;;;;;4133649;28;20548;-64
2022/08/06 10:48:11;;;;;;;4.95;2.10;;;32.10;95.20;;;;;;4137155;28;20046;-65
2022/08/06 10:50:35;;;;;;;8.05;2.20;;;32.10;95.60;;;;;;4135439;28;20049;-64
2022/08/06 10:52:56;;;;;;;7.68;2.45;;;32.00;95.70;;;;;;4156004;28;20508;-64
2022/08/06 10:55:05;;;;;;;6.93;2.40;;;32.00;95.70;;;;;;4132364;28;20501;-66
2022/08/06 10:57:12;;;;;;;7.72;2.08;;;31.90;96.10;;;;;;4129823;28;20121;-66
2022/08/06 10:59:36;;;;;;;6.68;1.88;;;31.80;96.00;;;;;;4127726;28;20129;-65
2022/08/06 11:02:12;;;;;;;6.28;2.25;;;31.90;96.10;;;;;;4128184;28;20124;-64
2022/08/06 11:04:51;;;;;;;6.18;2.22;;;31.90;96.60;;;;;;4129042;28;20054;-65
2022/08/06 11:07:30;;;;;;;4.32;2.05;;;31.80;96.30;;;;;;4134278;28;20125;-65
2022/08/06 11:10:26;;;;;;;6.38;2.13;;;31.70;96.70;;;;;;4130847;28;20042;-66
2022/08/06 11:12:53;;;;;;;4.55;2.70;;;31.60;97.30;;;;;;4130691;28;20050;-66
2022/08/06 11:14:58;;;;;;;5.95;2.67;;;31.60;97.40;;;;;;4129763;28;20050;-67
2022/08/06 11:17:03;;;;;;;8.23;2.90;;;31.70;97.50;;;;;;4128794;28;20058;-66
2022/08/06 11:19:16;;;;;;;10.75;2.97;;;31.70;97.60;;;;;;4128589;28;20055;-66
2022/08/06 11:21:41;;;;;;;10.13;3.67;;;31.60;98.10;;;;;;4128613;28;20073;-64
2022/08/06 11:24:06;;;;;;;5.40;3.13;;;31.60;98.40;;;;;;4130943;28;20448;-64
2022/08/06 11:26:12;;;;;;;9.23;3.75;;;31.60;98.50;;;;;;4130471;28;20034;-65
2022/08/06 11:28:20;;;;;;;9.18;3.40;;;31.60;98.70;;;;;;4153083;28;20037;-64
2022/08/06 11:30:38;;;;;;;7.88;3.17;;;31.50;99.20;;;;;;4125287;28;20048;-65
2022/08/06 11:32:47;;;;;;;5.35;3.13;;;31.50;99.40;;;;;;4119111;28;20078;-64
2022/08/06 11:34:52;;;;;;;9.05;3.35;;;31.50;99.40;;;;;;4125435;28;20046;-64
2022/08/06 11:36:59;;;;;;;4.97;2.95;;;31.50;99.50;;;;;;4123315;28;20058;-65
2022/08/06 11:39:27;;;;;;;8.13;3.47;;;31.50;99.50;;;;;;4125699;28;20054;-64
2022/08/06 11:41:48;;;;;;;9.75;3.30;;;31.50;99.70;;;;;;4125935;28;20042;-64
2022/08/06 11:44:07;;;;;;;7.28;3.40;;;31.50;99.70;;;;;;4127103;28;20077;-63
2022/08/06 11:46:25;;;;;;;7.60;3.47;;;31.50;99.80;;;;;;4090403;28;20051;-63
2022/08/06 11:49:18;;;;;;;9.52;3.50;;;31.40;99.90;;;;;;4126444;28;20513;-64